Aérodrome :
LOGIN :

S'inscrire | Disclaimer

   EN    FR    IT 

 










Légende :    VFR   VFR Marginal   IFR   IFR Intensif   IFR Très Intensif
Visi : 
Plafond : 
>= 8 km
>= 3000ft
5 à 8 km
1000 à 3000 ft
1500m à 5 km
500 à 1000 ft
800 à 1500m
200 à 500 ft
< 800m
< 200 ft
Symboles :   Orages  Brouillard  Fortes neiges  Fortes précipitations  Vent > 20 kt
SIGMETs :   Divers  Orages  Givrage  Turbulence  Onde Orograph.  Cendres Volcan.







- Altitude de l'aérodrome : 70 ft
- Code IATA : WBG


ETNS - Schleswig

DERNIER METAR :
  • 211120Z 10016KT 9999 FEW020 BKN130 04/M01 Q1023 BLU BLU TEMPO WHT

METARs EXPIRÉS :
  • 211020Z 10017KT 9999 FEW025 BKN120 04/M01 Q1023 BLU BLU TEMPO WHT
  • 210920Z 10014KT 9999 FEW025 BKN130 03/M01 Q1023 BLU BLU+ TEMPO BLU

TAF TAF ETNS
Valide du 21 à 12h jusqu'au 21 à 21h UTC


211110Z 2112/2121 10010G20KT 9999 NSW FEW015 BKN030
TEMPO 2112/2118 10015G25KT 8000 NSW BKN015
TEMPO 2118/2121 10015G25KT 6000 NSW BKN010 BY ETGL
Pas de NOTAMs connus pour ce terrain.



MET'MAP, la Météo Aéronautique d'un coup d'oeil ! - Copyright ORBIFLY Décembre 2007 - Disclaimer

ORBIFLY MET'MAP TEAM :

Programmation & Développement : Alexandra Zaïnal
Conception & Développement : Baudouin d'Aumeries
Co-Programmation & Développement : Marc-Olivier Méhu
Soutien technique & logistique : Manuel Goepfert

Contact : metmap@orbifly.com




SOURCES & CREDITS :

   NOAA